Tuttle, Idaho
Current Conditions -  °F | °C
As of 11:53 PM on Wednesday 17 Dec 2014 (Local Time) from KJER Reporting Station
Clear Clear  
Wind Chill: 23°   Ceiling: Unl
Heat Index: 32°   Visibility: 10mi
Dew Point: 27°   Wind: 12mph
Humidity: 82%   Direction: 70°ENE
Pressure: 30.04"   Gusts: NA
Location:  43.0634°N, 114.867°W
Report Text: KJER 180653Z AUTO 07010KT 10SM CLR 00/M03 A3004 RMK AO2 SLP190 T00001028 400501039
Loading
Personal Weather Stations






























Interactive Weather Map New forecast layout! Learn more

10-Day Weather Forecast

Advertisements
Track Severe Weather on mobile